Time;durP1;ratioP1;P1;durP2;ratioP2;P2;SDS_P1;SDS_P2;PMS_P1;PMS_P2;Temp;Humidity;BMP_temperature;BMP_pressure;BME280_temperature;BME280_humidity;BME280_pressure;Samples;Min_cycle;Max_cycle;Signal;HPM_P1;HPM_P2
2021/06/08 00:00:19;;;;;;;2.20;1.30;;;;;;;15.04;66.79;101336.63;5073143;28;20074;-84
2021/06/08 00:02:45;;;;;;;4.55;1.40;;;;;;;14.95;68.03;101332.84;5073400;28;20017;-84
2021/06/08 00:05:11;;;;;;;3.22;1.50;;;;;;;14.92;67.84;101338.34;5072802;28;20025;-84
2021/06/08 00:07:36;;;;;;;8.48;1.65;;;;;;;14.96;68.04;101345.09;5073154;28;20040;-84
2021/06/08 00:10:03;;;;;;;2.90;1.13;;;;;;;14.95;67.00;101346.09;5073172;28;20131;-85
2021/06/08 00:12:28;;;;;;;4.30;1.75;;;;;;;15.12;67.17;101338.72;5073013;28;20028;-84
2021/06/08 00:14:53;;;;;;;5.18;1.83;;;;;;;15.05;67.90;101348.91;5072797;28;20375;-84
2021/06/08 00:17:19;;;;;;;4.82;1.50;;;;;;;15.04;68.38;101344.56;5072704;28;20081;-85
2021/06/08 00:19:44;;;;;;;5.53;1.50;;;;;;;14.99;68.68;101344.06;5072301;28;20100;-84
2021/06/08 00:22:09;;;;;;;3.45;1.50;;;;;;;14.93;69.24;101345.34;5072357;28;20024;-84
2021/06/08 00:24:35;;;;;;;4.20;1.70;;;;;;;14.95;69.71;101342.56;5071556;28;20033;-84
2021/06/08 00:27:02;;;;;;;7.30;1.83;;;;;;;14.91;69.03;101344.63;5072786;28;20031;-84
2021/06/08 00:29:27;;;;;;;3.67;1.50;;;;;;;14.94;69.70;101347.03;5072512;28;20527;-85
2021/06/08 00:31:52;;;;;;;8.95;1.60;;;;;;;14.94;69.94;101344.38;5071305;28;20082;-84
2021/06/08 00:34:17;;;;;;;4.68;1.80;;;;;;;14.97;70.08;101341.53;5072201;28;20166;-84
2021/06/08 00:36:43;;;;;;;6.32;1.38;;;;;;;14.93;70.53;101342.69;5072078;28;20390;-84
2021/06/08 00:39:08;;;;;;;6.38;1.83;;;;;;;14.82;70.06;101345.25;5072518;28;20021;-84
2021/06/08 00:54:23;;;;;;;6.35;2.25;;;;;;;14.95;72.56;101347.84;5071826;28;20040;-84
2021/06/08 00:56:49;;;;;;;9.85;2.33;;;;;;;14.97;71.93;101345.94;5072522;28;20386;-84
2021/06/08 00:59:15;;;;;;;6.00;2.95;;;;;;;14.91;73.26;101352.53;5072069;28;20103;-84
2021/06/08 01:01:40;;;;;;;5.18;2.55;;;;;;;14.90;73.20;101344.72;5071953;28;20463;-84
2021/06/08 01:04:08;;;;;;;4.85;2.60;;;;;;;14.88;73.77;101344.81;5072255;28;20017;-84
2021/06/08 01:06:35;;;;;;;6.78;2.50;;;;;;;14.90;74.29;101339.44;5072305;28;20070;-84
2021/06/08 01:09:02;;;;;;;5.70;2.30;;;;;;;14.89;74.74;101349.16;5070353;28;20025;-84
2021/06/08 01:11:28;;;;;;;9.73;4.05;;;;;;;14.90;74.43;101340.25;5071889;28;20489;-85
2021/06/08 01:13:53;;;;;;;6.80;2.70;;;;;;;14.91;75.13;101341.97;5070615;28;20024;-84
2021/06/08 01:16:19;;;;;;;8.77;2.80;;;;;;;14.91;75.46;101335.81;5071938;28;20032;-84
2021/06/08 01:18:44;;;;;;;8.15;2.70;;;;;;;15.06;75.09;101332.91;5071900;28;20020;-84
2021/06/08 01:21:11;;;;;;;3.85;2.10;;;;;;;15.02;75.76;101336.72;5071495;28;20483;-84
2021/06/08 01:23:37;;;;;;;8.27;2.85;;;;;;;15.05;75.69;101336.53;5072463;28;20035;-84
2021/06/08 01:26:05;;;;;;;6.47;3.00;;;;;;;15.07;75.28;101337.25;5071975;28;20029;-84
2021/06/08 01:28:32;;;;;;;6.72;3.10;;;;;;;15.03;75.56;101341.09;5072067;28;20111;-84
2021/06/08 01:30:58;;;;;;;6.50;3.03;;;;;;;15.06;75.91;101335.56;5071373;28;20036;-85
2021/06/08 01:33:26;;;;;;;6.30;2.90;;;;;;;15.03;76.12;101335.78;5070533;28;20024;-85
2021/06/08 01:35:53;;;;;;;6.18;3.33;;;;;;;15.01;76.10;101332.41;5071552;28;20259;-84
2021/06/08 01:38:20;;;;;;;5.90;2.90;;;;;;;15.03;76.27;101330.50;5071766;28;20381;-84
2021/06/08 01:40:48;;;;;;;9.23;3.65;;;;;;;14.98;76.57;101335.25;5071395;28;20025;-84
2021/06/08 01:43:14;;;;;;;7.97;3.25;;;;;;;14.96;76.42;101344.28;5071241;28;20470;-84
2021/06/08 01:45:41;;;;;;;6.68;3.50;;;;;;;14.93;76.39;101339.19;5071825;28;20063;-84
2021/06/08 01:48:07;;;;;;;5.55;3.03;;;;;;;14.91;76.71;101338.47;5071852;28;20031;-84
2021/06/08 01:50:32;;;;;;;4.75;3.08;;;;;;;14.86;76.50;101339.63;5071140;28;20025;-84
2021/06/08 01:53:18;;;;;;;4.53;3.08;;;;;;;14.87;76.50;101338.69;5071497;28;20099;-84
2021/06/08 01:55:45;;;;;;;6.05;3.20;;;;;;;14.88;76.02;101347.47;5072246;28;20032;-84
2021/06/08 01:58:15;;;;;;;6.22;3.38;;;;;;;14.85;77.37;101337.13;5075657;28;20043;-84
2021/06/08 02:01:00;;;;;;;7.20;3.58;;;;;;;14.82;76.96;101342.63;5075290;28;20082;-84
2021/06/08 02:03:33;;;;;;;5.68;3.40;;;;;;;14.73;77.56;101354.69;5075428;28;20024;-84
2021/06/08 02:06:08;;;;;;;8.05;3.50;;;;;;;14.62;78.31;101339.56;5075127;28;20391;-84
2021/06/08 02:08:39;;;;;;;5.13;3.33;;;;;;;14.64;78.59;101344.75;5075284;28;20070;-84
2021/06/08 02:11:12;;;;;;;8.47;3.53;;;;;;;14.65;79.41;101344.66;5074963;28;20021;-84
2021/06/08 02:13:44;;;;;;;4.30;3.17;;;;;;;14.71;79.30;101339.88;5075284;28;20034;-84
2021/06/08 02:16:23;;;;;;;10.55;4.30;;;;;;;14.72;79.75;101339.78;5075326;28;20036;-84
2021/06/08 02:18:50;;;;;;;9.32;3.90;;;;;;;14.72;79.49;101333.66;5075019;28;20022;-84
2021/06/08 02:21:26;;;;;;;9.15;4.47;;;;;;;14.68;78.70;101341.78;5074754;28;20101;-84
2021/06/08 02:23:53;;;;;;;6.90;4.10;;;;;;;14.62;78.94;101334.28;5075050;28;20025;-84
2021/06/08 02:26:22;;;;;;;7.63;4.13;;;;;;;14.61;78.25;101332.63;5074807;28;20033;-85
2021/06/08 02:28:49;;;;;;;6.63;3.25;;;;;;;14.57;78.22;101335.56;5073685;28;20024;-84
2021/06/08 02:31:17;;;;;;;9.02;4.57;;;;;;;14.51;78.07;101338.59;5074689;28;20115;-84
2021/06/08 02:33:46;;;;;;;8.45;4.40;;;;;;;14.47;78.01;101332.69;5074788;28;20116;-84
2021/06/08 02:36:12;;;;;;;6.25;4.07;;;;;;;14.42;78.98;101340.94;5074951;28;20028;-84
2021/06/08 02:38:38;;;;;;;12.48;3.92;;;;;;;14.51;78.71;101343.88;5074433;28;20033;-84
2021/06/08 02:41:05;;;;;;;5.63;3.55;;;;;;;14.45;78.99;101339.88;5074671;28;20470;-84
2021/06/08 02:43:32;;;;;;;10.05;4.55;;;;;;;14.39;79.39;101345.56;5074670;28;20455;-84
2021/06/08 02:45:58;;;;;;;6.95;4.30;;;;;;;14.41;78.78;101343.69;5074702;28;20390;-84
2021/06/08 02:48:26;;;;;;;6.28;3.83;;;;;;;14.49;78.70;101338.69;5074098;28;20036;-84
2021/06/08 02:50:53;;;;;;;12.20;5.00;;;;;;;14.15;80.78;101335.75;5074515;28;20024;-84
2021/06/08 02:53:19;;;;;;;8.15;4.82;;;;;;;14.08;80.64;101340.59;5074522;28;20039;-84
2021/06/08 02:55:44;;;;;;;7.60;4.80;;;;;;;14.16;81.25;101339.22;5074621;28;20043;-85
2021/06/08 02:58:12;;;;;;;8.77;4.60;;;;;;;14.08;80.80;101340.59;5074304;28;20024;-84
2021/06/08 03:00:39;;;;;;;8.38;4.55;;;;;;;13.87;80.77;101336.78;5074331;28;20107;-84
2021/06/08 03:03:07;;;;;;;15.18;4.57;;;;;;;13.92;80.70;101344.38;5074383;28;20542;-84
2021/06/08 03:05:38;;;;;;;9.55;4.60;;;;;;;13.87;81.41;101340.25;5074174;28;20035;-84
2021/06/08 03:08:12;;;;;;;8.27;4.78;;;;;;;13.86;81.20;101346.50;5073393;28;20097;-85
2021/06/08 03:10:38;;;;;;;7.50;5.25;;;;;;;13.71;83.14;101351.94;5074438;28;20111;-84
2021/06/08 03:13:07;;;;;;;10.60;5.25;;;;;;;13.79;82.14;101353.13;5072904;28;20029;-84
2021/06/08 03:15:55;;;;;;;8.50;5.60;;;;;;;13.86;82.75;101354.41;5074149;28;20536;-84
2021/06/08 03:18:26;;;;;;;7.03;4.55;;;;;;;13.74;82.90;101355.19;5073875;28;20090;-84
2021/06/08 03:21:18;;;;;;;7.38;4.45;;;;;;;13.62;83.63;101353.38;5073991;28;20020;-84
2021/06/08 03:23:55;;;;;;;12.20;4.95;;;;;;;13.54;83.99;101348.59;5074061;28;20108;-84
2021/06/08 03:26:22;;;;;;;9.38;4.75;;;;;;;13.36;84.75;101348.00;5072729;28;20086;-84
2021/06/08 03:28:51;;;;;;;9.88;4.97;;;;;;;13.29;84.02;101350.22;5073618;28;20485;-84
2021/06/08 03:31:18;;;;;;;8.43;4.70;;;;;;;13.35;84.72;101354.25;5073938;28;20484;-84
2021/06/08 03:33:43;;;;;;;7.82;5.18;;;;;;;13.26;84.73;101350.34;5073669;28;20017;-84
2021/06/08 03:36:11;;;;;;;11.30;5.63;;;;;;;13.29;84.97;101351.97;5073736;28;20032;-84
2021/06/08 03:38:39;;;;;;;9.55;5.57;;;;;;;13.26;84.81;101346.88;5073474;28;20078;-84
2021/06/08 03:41:05;;;;;;;7.43;5.22;;;;;;;13.26;83.70;101344.25;5073563;28;20028;-84
2021/06/08 03:43:31;;;;;;;10.00;5.85;;;;;;;13.26;85.36;101352.16;5073683;28;20028;-84
2021/06/08 03:45:57;;;;;;;7.68;4.90;;;;;;;13.22;84.67;101353.31;5073563;28;20033;-84
2021/06/08 03:48:23;;;;;;;6.43;4.80;;;;;;;13.32;84.95;101353.59;5073098;28;20028;-84
2021/06/08 03:50:50;;;;;;;8.93;5.13;;;;;;;13.28;85.24;101352.91;5073227;28;20039;-84
2021/06/08 03:53:15;;;;;;;9.07;5.47;;;;;;;13.28;84.37;101350.28;5073502;28;20028;-84
2021/06/08 03:55:41;;;;;;;9.20;5.95;;;;;;;13.41;84.22;101343.28;5073205;28;20122;-84
2021/06/08 03:58:14;;;;;;;9.52;6.57;;;;;;;13.57;83.09;101348.41;5073136;28;20382;-84
2021/06/08 04:00:42;;;;;;;11.05;5.68;;;;;;;13.60;82.16;101352.63;5073144;28;20367;-84
2021/06/08 04:03:10;;;;;;;10.50;6.53;;;;;;;13.54;82.33;101350.41;5073121;28;20552;-84
2021/06/08 04:05:37;;;;;;;9.00;6.45;;;;;;;13.63;82.10;101355.09;5072857;28;20035;-84
2021/06/08 04:08:05;;;;;;;12.40;6.05;;;;;;;13.62;82.44;101348.09;5071430;28;20390;-84
2021/06/08 04:10:31;;;;;;;10.82;6.30;;;;;;;13.62;81.39;101350.75;5072837;28;20542;-84
2021/06/08 04:13:01;;;;;;;10.80;5.53;;;;;;;13.59;81.47;101350.97;5073336;28;20027;-84
2021/06/08 04:15:27;;;;;;;15.60;7.47;;;;;;;13.59;81.73;101349.16;5072786;28;20028;-85
2021/06/08 04:17:57;;;;;;;10.73;5.97;;;;;;;13.71;82.77;101350.16;5072305;28;20025;-85
2021/06/08 04:20:25;;;;;;;9.85;6.20;;;;;;;13.78;82.29;101361.13;5072388;28;20040;-85
2021/06/08 04:22:55;;;;;;;9.75;6.05;;;;;;;13.72;82.62;101358.91;5072800;28;20078;-85
2021/06/08 04:25:20;;;;;;;13.02;6.38;;;;;;;13.44;84.71;101352.78;5072916;28;20382;-84
2021/06/08 04:27:46;;;;;;;8.60;5.28;;;;;;;13.68;82.65;101355.63;5072624;28;20028;-84
2021/06/08 04:30:13;;;;;;;9.32;6.15;;;;;;;13.81;82.29;101353.88;5072471;28;20086;-84
2021/06/08 04:32:39;;;;;;;13.32;5.78;;;;;;;13.82;81.93;101358.22;5072724;28;20107;-84
2021/06/08 04:35:06;;;;;;;9.20;5.55;;;;;;;13.80;81.75;101359.22;5072351;28;20438;-84
2021/06/08 04:37:32;;;;;;;7.30;5.63;;;;;;;13.83;81.66;101364.31;5071999;28;20032;-84
2021/06/08 04:39:57;;;;;;;10.60;6.38;;;;;;;13.81;81.93;101363.59;5072393;28;20024;-84
2021/06/08 04:42:23;;;;;;;7.60;5.97;;;;;;;13.83;81.52;101353.78;5072210;28;20048;-84
2021/06/08 04:44:51;;;;;;;7.70;5.72;;;;;;;13.87;81.86;101356.09;5072585;28;20027;-84
2021/06/08 04:47:18;;;;;;;8.18;6.05;;;;;;;13.85;82.60;101352.72;5072034;28;20364;-84
2021/06/08 04:49:44;;;;;;;10.30;6.65;;;;;;;13.89;83.76;101350.72;5072359;28;20047;-85
2021/06/08 04:52:09;;;;;;;10.63;6.95;;;;;;;13.93;83.96;101359.28;5072140;28;20020;-84
2021/06/08 04:54:36;;;;;;;9.40;6.13;;;;;;;13.97;83.71;101350.19;5070865;28;20067;-84
2021/06/08 04:57:04;;;;;;;11.50;6.57;;;;;;;13.97;84.78;101355.47;5072078;28;20111;-84
2021/06/08 04:59:33;;;;;;;10.32;6.60;;;;;;;14.08;83.89;101360.91;5071548;28;20474;-84
2021/06/08 05:01:59;;;;;;;13.57;7.35;;;;;;;14.16;84.01;101355.94;5070410;28;20044;-84
2021/06/08 05:04:28;;;;;;;12.18;6.03;;;;;;;14.21;84.61;101364.38;5071222;28;20140;-85
2021/06/08 05:06:57;;;;;;;10.05;6.78;;;;;;;14.25;83.74;101360.56;5071875;28;20063;-84
2021/06/08 05:09:27;;;;;;;11.95;6.85;;;;;;;14.32;83.69;101368.09;5071720;28;20043;-84
2021/06/08 05:11:55;;;;;;;9.70;5.45;;;;;;;14.37;83.72;101368.63;5071442;28;20029;-84
2021/06/08 05:14:24;;;;;;;10.07;6.10;;;;;;;14.43;83.26;101362.91;5071485;28;20032;-84
2021/06/08 05:16:50;;;;;;;10.07;6.10;;;;;;;14.50;83.80;101373.91;5071430;28;20024;-85
2021/06/08 05:19:19;;;;;;;8.52;6.90;;;;;;;14.52;83.43;101372.03;5071764;28;20092;-84
2021/06/08 05:21:46;;;;;;;8.70;6.40;;;;;;;14.56;83.64;101378.78;5070494;28;20025;-84
2021/06/08 05:24:13;;;;;;;12.70;6.22;;;;;;;14.61;83.70;101366.97;5071823;28;20453;-84
2021/06/08 05:26:41;;;;;;;6.95;5.68;;;;;;;14.70;83.79;101375.22;5072214;28;20051;-84
2021/06/08 05:29:07;;;;;;;8.63;5.93;;;;;;;14.78;83.85;101378.16;5071268;28;20024;-85
2021/06/08 05:31:33;;;;;;;10.80;6.55;;;;;;;14.82;83.71;101379.63;5070671;28;20033;-85
2021/06/08 05:33:59;;;;;;;12.32;8.07;;;;;;;14.90;84.22;101385.22;5071438;28;20029;-84
2021/06/08 05:36:32;;;;;;;11.45;6.80;;;;;;;14.98;84.25;101374.09;5073481;28;20035;-85
2021/06/08 05:38:57;;;;;;;8.57;6.10;;;;;;;15.06;84.29;101372.59;5073833;28;20154;-85
2021/06/08 05:41:23;;;;;;;11.38;7.70;;;;;;;15.11;84.59;101374.09;5072377;28;20490;-94
2021/06/08 05:43:48;;;;;;;13.32;7.32;;;;;;;15.19;84.80;101377.00;5067325;28;20017;-95
2021/06/08 05:46:14;;;;;;;11.35;8.10;;;;;;;15.28;84.76;101381.63;5070745;28;20033;-94
2021/06/08 05:48:40;;;;;;;15.98;7.55;;;;;;;15.35;84.71;101372.28;5071636;28;20031;-94
2021/06/08 05:51:07;;;;;;;11.80;6.72;;;;;;;15.45;84.58;101378.59;5072994;28;20036;-94
2021/06/08 05:53:36;;;;;;;8.60;6.32;;;;;;;15.52;84.80;101383.44;5072010;28;20024;-85
2021/06/08 05:56:01;;;;;;;11.88;6.28;;;;;;;15.62;84.91;101376.50;5071669;28;20032;-84
2021/06/08 05:58:31;;;;;;;11.40;7.38;;;;;;;15.73;85.02;101376.59;5071393;28;20031;-85
2021/06/08 06:00:58;;;;;;;9.30;6.60;;;;;;;16.74;79.45;101377.78;5070990;28;20054;-85
2021/06/08 06:03:26;;;;;;;10.43;7.10;;;;;;;16.11;83.75;101385.28;5071253;28;20028;-85
2021/06/08 06:05:53;;;;;;;12.07;6.80;;;;;;;16.10;84.34;101387.09;5071346;28;20020;-84
2021/06/08 06:08:19;;;;;;;11.80;7.32;;;;;;;16.25;83.93;101383.28;5071414;28;20035;-85
2021/06/08 06:10:45;;;;;;;13.23;8.15;;;;;;;16.85;82.65;101383.13;5071120;28;20115;-83
2021/06/08 06:13:17;;;;;;;10.85;7.43;;;;;;;17.39;80.73;101387.63;5071085;28;20056;-83
2021/06/08 06:15:44;;;;;;;8.60;6.55;;;;;;;17.80;78.65;101390.50;5071382;28;20033;-82
2021/06/08 06:18:13;;;;;;;12.75;7.10;;;;;;;18.09;77.57;101392.56;5071362;28;20032;-83
2021/06/08 06:20:39;;;;;;;12.32;7.15;;;;;;;18.60;73.98;101397.94;5070425;28;20414;-83
2021/06/08 06:23:05;;;;;;;10.32;6.55;;;;;;;19.00;72.38;101383.84;5069299;28;20029;-83
2021/06/08 06:25:31;;;;;;;9.30;6.43;;;;;;;19.50;69.15;101392.78;5070720;28;20033;-83
2021/06/08 06:27:57;;;;;;;9.27;6.22;;;;;;;19.77;69.15;101390.31;5069039;28;20474;-83
2021/06/08 06:30:22;;;;;;;13.77;7.30;;;;;;;19.92;66.63;101389.88;5071518;28;20087;-84
2021/06/08 06:32:49;;;;;;;11.65;6.45;;;;;;;19.96;65.21;101393.94;5070940;28;20035;-83
2021/06/08 06:35:16;;;;;;;12.77;6.25;;;;;;;20.18;65.83;101393.63;5066352;28;20024;-83
2021/06/08 06:37:43;;;;;;;9.43;5.22;;;;;;;20.47;65.49;101386.53;5070528;28;20043;-83
2021/06/08 06:40:12;;;;;;;11.45;6.03;;;;;;;20.60;63.01;101395.94;5068775;28;20163;-83
2021/06/08 06:42:46;;;;;;;11.88;5.60;;;;;;;20.81;63.40;101392.19;5057046;28;20467;-83
2021/06/08 06:45:21;;;;;;;8.75;4.80;;;;;;;20.94;62.02;101387.38;5059705;28;20115;-83
2021/06/08 06:47:48;;;;;;;10.75;4.88;;;;;;;21.16;61.97;101385.28;5070504;28;20453;-83
2021/06/08 06:50:15;;;;;;;9.52;5.18;;;;;;;21.39;60.96;101391.88;5073546;28;20033;-83
2021/06/08 06:52:55;;;;;;;9.38;5.60;;;;;;;21.48;60.95;101381.31;5074156;28;20486;-83
2021/06/08 06:55:21;;;;;;;13.73;5.72;;;;;;;21.84;59.59;101389.31;5073616;28;20044;-83
2021/06/08 06:57:46;;;;;;;14.75;6.68;;;;;;;22.13;58.38;101392.56;5073208;28;20409;-83
2021/06/08 07:00:12;;;;;;;9.15;5.55;;;;;;;22.37;57.84;101394.63;5072782;28;20386;-83
2021/06/08 07:02:39;;;;;;;12.88;5.93;;;;;;;22.39;58.44;101386.41;5074154;28;20021;-83
2021/06/08 07:05:06;;;;;;;16.55;6.32;;;;;;;22.18;57.13;101387.59;5072895;28;20052;-84
2021/06/08 07:07:33;;;;;;;57.03;9.65;;;;;;;21.99;58.53;101395.81;5073239;28;20413;-83
2021/06/08 07:09:59;;;;;;;16.48;5.95;;;;;;;21.96;57.32;101391.63;5073738;28;20020;-82
2021/06/08 07:12:25;;;;;;;15.52;6.15;;;;;;;21.97;57.25;101395.13;5073365;28;20485;-82
2021/06/08 07:14:50;;;;;;;15.18;7.20;;;;;;;21.96;56.92;101398.81;5073221;28;20068;-82
2021/06/08 07:17:20;;;;;;;13.40;7.18;;;;;;;21.86;57.98;101395.34;5072307;28;20051;-82
2021/06/08 07:19:46;;;;;;;11.32;7.85;;;;;;;21.99;57.33;101398.47;5072935;28;20082;-82
2021/06/08 07:22:11;;;;;;;16.25;11.32;;;;;;;21.74;55.73;101390.25;5073590;28;20025;-82
2021/06/08 07:24:41;;;;;;;18.85;10.27;;;;;;;22.19;55.40;101396.47;5073855;28;20424;-82
2021/06/08 07:27:11;;;;;;;19.45;8.48;;;;;;;22.33;54.71;101395.94;5072841;28;20111;-82
2021/06/08 07:29:37;;;;;;;16.67;8.07;;;;;;;22.40;54.37;101406.84;5073215;28;20474;-82
2021/06/08 07:32:11;;;;;;;8.75;6.07;;;;;;;22.61;54.64;101398.44;5073190;28;20297;-83
2021/06/08 07:34:44;;;;;;;11.50;5.60;;;;;;;22.74;53.95;101398.00;5072273;28;20479;-82
2021/06/08 07:37:15;;;;;;;11.70;4.82;;;;;;;23.58;51.52;101401.66;5054172;28;20060;-83
2021/06/08 07:39:47;;;;;;;13.80;4.32;;;;;;;24.18;49.44;101387.09;5073076;28;20021;-83
2021/06/08 07:42:21;;;;;;;10.02;4.75;;;;;;;25.01;48.89;101388.53;5072354;28;20039;-82
2021/06/08 07:45:00;;;;;;;12.45;4.53;;;;;;;26.23;44.85;101382.50;5072761;28;20027;-82
2021/06/08 07:47:28;;;;;;;11.18;3.78;;;;;;;27.17;42.77;101380.03;5072829;28;20029;-82
2021/06/08 07:49:55;;;;;;;8.32;3.38;;;;;;;27.84;39.98;101386.13;5073055;28;20024;-83
2021/06/08 07:52:23;;;;;;;11.60;3.80;;;;;;;27.74;38.92;101380.22;5073127;28;20029;-83
2021/06/08 07:54:49;;;;;;;8.43;3.30;;;;;;;28.52;38.58;101388.34;5073348;28;20104;-83
2021/06/08 07:57:15;;;;;;;7.88;2.40;;;;;;;29.52;36.07;101378.72;5072931;28;20111;-83
2021/06/08 07:59:41;;;;;;;10.98;2.50;;;;;;;30.19;34.48;101382.28;5073272;28;20023;-83
2021/06/08 08:02:09;;;;;;;11.32;2.10;;;;;;;30.61;32.68;101382.88;5073054;28;20425;-83
2021/06/08 08:04:46;;;;;;;4.05;1.52;;;;;;;31.18;32.44;101376.78;5073146;28;20451;-83
2021/06/08 08:07:12;;;;;;;4.18;1.70;;;;;;;31.74;31.55;101377.91;5072812;28;20082;-83
2021/06/08 08:09:38;;;;;;;7.95;1.92;;;;;;;31.94;31.52;101378.56;5073235;28;20021;-83
2021/06/08 08:12:04;;;;;;;7.43;2.05;;;;;;;32.05;30.99;101377.03;5073091;28;20028;-83
2021/06/08 08:14:31;;;;;;;5.45;1.35;;;;;;;31.48;29.97;101374.34;5072022;28;20025;-83
2021/06/08 08:16:57;;;;;;;2.75;0.90;;;;;;;32.34;28.39;101370.03;5072378;28;20471;-83
2021/06/08 08:19:24;;;;;;;2.83;0.90;;;;;;;33.39;27.30;101370.81;5072804;28;20509;-83
2021/06/08 08:21:50;;;;;;;4.15;1.20;;;;;;;32.87;26.91;101375.94;5072177;28;20040;-83
2021/06/08 08:24:16;;;;;;;1.92;0.82;;;;;;;33.24;26.65;101373.16;5072381;28;20020;-83
2021/06/08 08:26:41;;;;;;;3.97;1.30;;;;;;;32.65;28.01;101376.41;5070838;28;20028;-83
2021/06/08 08:29:07;;;;;;;2.97;0.93;;;;;;;32.48;27.95;101370.72;5072435;28;20024;-83
2021/06/08 08:31:33;;;;;;;2.80;1.00;;;;;;;33.10;26.09;101381.50;5072484;28;20109;-83
2021/06/08 08:33:58;;;;;;;10.68;1.48;;;;;;;33.77;25.83;101372.34;5072332;28;20040;-83
2021/06/08 08:36:27;;;;;;;11.35;1.25;;;;;;;33.23;25.32;101379.66;5072504;28;20103;-83
2021/06/08 08:38:52;;;;;;;4.57;1.30;;;;;;;33.44;26.58;101372.84;5071728;28;20032;-83
2021/06/08 08:41:19;;;;;;;4.55;1.17;;;;;;;34.52;25.16;101378.94;5072343;28;20459;-84
2021/06/08 08:43:47;;;;;;;5.32;1.27;;;;;;;34.70;24.34;101376.09;5072484;28;20039;-84
2021/06/08 08:46:14;;;;;;;2.13;1.00;;;;;;;35.30;24.58;101380.25;5072303;28;20063;-84
2021/06/08 08:48:41;;;;;;;2.72;1.30;;;;;;;35.06;24.83;101374.06;5071957;28;20032;-82
2021/06/08 08:51:07;;;;;;;3.15;0.73;;;;;;;36.24;22.82;101378.78;5071954;28;20051;-83
2021/06/08 08:53:34;;;;;;;6.18;1.30;;;;;;;34.60;24.78;101375.88;5072145;28;20174;-82
2021/06/08 08:55:59;;;;;;;2.85;0.93;;;;;;;33.11;26.15;101368.72;5071892;28;20044;-81
2021/06/08 08:58:27;;;;;;;5.70;1.30;;;;;;;32.54;27.94;101369.81;5072290;28;20031;-81
2021/06/08 09:00:55;;;;;;;3.67;1.80;;;;;;;31.35;28.95;101377.09;5070341;28;21512;-81
2021/06/08 09:03:21;;;;;;;3.28;1.30;;;;;;;30.41;29.94;101382.91;5068970;28;20039;-81
2021/06/08 09:05:46;;;;;;;3.92;1.45;;;;;;;31.92;29.55;101377.94;5070380;28;20040;-81
2021/06/08 09:08:12;;;;;;;3.47;1.33;;;;;;;32.88;27.24;101367.56;5071733;28;20054;-81
2021/06/08 09:10:39;;;;;;;3.05;1.45;;;;;;;32.03;29.16;101372.88;5072070;28;20027;-81
2021/06/08 09:13:05;;;;;;;6.20;1.98;;;;;;;32.06;28.40;101370.53;5071699;28;20031;-81
2021/06/08 09:15:31;;;;;;;4.50;1.48;;;;;;;33.17;27.76;101362.34;5070222;28;20381;-81
2021/06/08 09:17:58;;;;;;;3.22;1.65;;;;;;;33.72;26.69;101353.16;5065917;28;20146;-81
2021/06/08 09:20:26;;;;;;;3.80;1.27;;;;;;;34.90;25.79;101358.47;5070798;28;20024;-81
2021/06/08 09:23:03;;;;;;;1.95;0.80;;;;;;;35.49;23.81;101359.00;5071637;28;20470;-82
2021/06/08 09:25:37;;;;;;;2.90;1.20;;;;;;;35.74;23.24;101352.31;5070864;28;20389;-81
2021/06/08 09:28:24;;;;;;;3.10;1.35;;;;;;;33.13;26.36;101353.00;5063248;28;20031;-83
2021/06/08 09:30:57;;;;;;;3.85;1.13;;;;;;;33.52;25.41;101346.13;5070695;28;20039;-83
2021/06/08 09:33:39;;;;;;;3.45;1.00;;;;;;;33.18;27.66;101343.09;5071341;28;20040;-83
2021/06/08 09:36:21;;;;;;;3.38;1.15;;;;;;;33.36;25.27;101344.06;5069087;28;20705;-83
2021/06/08 09:38:55;;;;;;;4.68;1.48;;;;;;;34.40;24.80;101342.69;5067614;28;20155;-83
2021/06/08 09:41:43;;;;;;;3.60;1.60;;;;;;;34.74;24.26;101347.25;5070643;28;20119;-83
2021/06/08 09:44:14;;;;;;;4.60;1.52;;;;;;;33.62;26.23;101342.00;5051510;28;20071;-83
2021/06/08 09:46:48;;;;;;;6.28;1.50;;;;;;;34.20;25.30;101343.09;5061135;28;20086;-82
2021/06/08 09:49:16;;;;;;;2.38;1.02;;;;;;;33.62;25.61;101336.53;5070038;28;20060;-83
2021/06/08 09:51:46;;;;;;;2.63;1.30;;;;;;;33.17;25.80;101333.25;5070629;28;20032;-83
2021/06/08 09:54:43;;;;;;;3.28;1.10;;;;;;;32.47;27.21;101325.56;5070821;28;20094;-83
2021/06/08 09:57:28;;;;;;;4.35;1.00;;;;;;;33.47;27.02;101331.53;5070667;28;20056;-83
2021/06/08 10:00:00;;;;;;;3.55;1.02;;;;;;;33.64;27.03;101329.81;5069568;28;20051;-83
2021/06/08 10:02:38;;;;;;;2.83;1.27;;;;;;;34.16;25.85;101337.28;5067106;28;20101;-83
2021/06/08 10:05:29;;;;;;;3.95;1.67;;;;;;;34.11;25.94;101323.53;5066126;28;20036;-83
2021/06/08 10:08:00;;;;;;;3.25;1.20;;;;;;;34.61;26.19;101322.97;5071097;28;20127;-83
2021/06/08 10:10:26;;;;;;;3.65;1.45;;;;;;;35.98;23.67;101322.88;5070704;28;20025;-83
2021/06/08 10:13:06;;;;;;;2.83;1.08;;;;;;;36.91;21.28;101322.16;5070148;28;20039;-83
2021/06/08 10:15:48;;;;;;;4.07;1.40;;;;;;;36.23;22.13;101316.13;5070223;28;20478;-83
2021/06/08 10:18:14;;;;;;;1.70;0.85;;;;;;;37.01;21.62;101308.56;5074065;28;20123;-83
2021/06/08 10:20:46;;;;;;;2.83;1.15;;;;;;;37.67;20.76;101312.97;5074876;28;20116;-83
2021/06/08 10:23:19;;;;;;;3.53;1.10;;;;;;;35.49;23.46;101312.59;5063883;28;20032;-83
2021/06/08 10:25:45;;;;;;;3.13;1.27;;;;;;;36.57;22.58;101316.00;5069945;28;20484;-83
2021/06/08 10:28:12;;;;;;;2.28;0.98;;;;;;;37.11;22.39;101311.38;5074688;28;20108;-83
2021/06/08 10:30:39;;;;;;;4.30;1.30;;;;;;;37.42;21.30;101305.34;5073312;28;20020;-83
2021/06/08 10:33:05;;;;;;;2.85;1.15;;;;;;;36.62;22.23;101308.69;5067170;28;20043;-83
2021/06/08 10:35:30;;;;;;;2.90;1.02;;;;;;;36.00;22.02;101303.50;5073834;28;20021;-83
2021/06/08 10:37:56;;;;;;;3.13;1.40;;;;;;;34.14;23.45;101309.41;5074019;28;20394;-83
2021/06/08 10:40:21;;;;;;;2.42;1.10;;;;;;;33.08;25.09;101310.16;5070662;28;20494;-83
2021/06/08 10:42:47;;;;;;;4.90;1.67;;;;;;;33.24;25.13;101305.13;5074506;28;20021;-83
2021/06/08 10:45:12;;;;;;;3.40;1.13;;;;;;;33.66;25.12;101305.91;5073888;28;20504;-83
2021/06/08 10:47:45;;;;;;;9.15;1.70;;;;;;;34.07;24.37;101308.75;5066666;28;20017;-83
2021/06/08 10:50:45;;;;;;;2.92;1.20;;;;;;;35.37;23.37;101303.66;5066978;28;20028;-83
2021/06/08 10:53:26;;;;;;;73.80;6.63;;;;;;;35.40;22.93;101308.59;5060590;28;20070;-83
2021/06/08 10:55:51;;;;;;;3.47;1.30;;;;;;;35.17;24.26;101303.31;5074065;28;20125;-83
2021/06/08 10:58:50;;;;;;;4.18;1.00;;;;;;;35.53;23.71;101310.19;5073381;28;20063;-83
2021/06/08 11:01:34;;;;;;;4.15;1.40;;;;;;;35.73;23.47;101306.97;5058112;28;20306;-83
2021/06/08 11:04:02;;;;;;;2.90;1.00;;;;;;;35.88;23.62;101311.81;5073152;28;20052;-83
2021/06/08 11:06:36;;;;;;;3.60;1.23;;;;;;;36.36;23.47;101303.97;5074517;28;20382;-83
2021/06/08 11:09:15;;;;;;;5.78;1.40;;;;;;;36.95;21.94;101293.19;5073256;28;20032;-84
2021/06/08 11:11:58;;;;;;;4.97;1.40;;;;;;;37.54;21.47;101299.69;5073172;28;20036;-83
2021/06/08 11:14:34;;;;;;;4.68;1.48;;;;;;;37.64;22.30;101297.03;5070689;28;20033;-84
2021/06/08 11:17:35;;;;;;;5.13;1.45;;;;;;;38.09;20.26;101298.41;5053995;28;20021;-83
2021/06/08 11:20:22;;;;;;;8.15;2.05;;;;;;;38.81;19.85;101296.75;5069576;28;20167;-83
2021/06/08 11:22:54;;;;;;;4.43;1.50;;;;;;;36.79;20.85;101297.69;5073186;28;20047;-84
2021/06/08 11:25:33;;;;;;;4.20;1.50;;;;;;;37.16;20.64;101291.47;5073953;28;20466;-84
2021/06/08 11:28:01;;;;;;;6.80;1.70;;;;;;;35.84;22.71;101300.53;5073333;28;20035;-84
2021/06/08 11:30:30;;;;;;;8.35;1.30;;;;;;;36.06;23.03;101288.81;5073424;28;20016;-84
2021/06/08 11:32:56;;;;;;;7.85;1.63;;;;;;;36.55;22.23;101285.34;5073329;28;20032;-83
2021/06/08 11:35:36;;;;;;;5.55;1.13;;;;;;;36.48;22.46;101286.38;5073183;28;20523;-86
2021/06/08 11:38:24;;;;;;;2.53;1.08;;;;;;;35.49;23.62;101289.91;5073020;28;20028;-83
2021/06/08 11:40:50;;;;;;;4.72;1.30;;;;;;;36.25;22.29;101275.69;5053963;28;20025;-84
2021/06/08 11:43:15;;;;;;;4.82;1.30;;;;;;;37.10;21.82;101276.03;5072842;28;20032;-84